Flight Track Log - Related Links

Times and Time Zones

All times are in EST time to prevent confusion due to time zone crossing. See the N27XP flight status page for this flight to view local times or setup timezone preferences in your user account.


Time Position Orientation Groundspeed Altitude Reporting Facility
EST Latitude Longitude Course Direction KTS MPH feet Rate Location/Type
Tue 11:59:20 PM 29.1833 -82.2242 360° North 149 171 1,300  Level Jacksonville Center
Wed 12:01:12 AM 29.3022 -82.1925 13° North 272 313 7,200 3,000 Climbing Jacksonville Center
Wed 12:02:12 AM 29.3814 -82.1658 16° North 278 320 9,900 2,650 Climbing Jacksonville Center
Wed 12:03:12 AM 29.4606 -82.1389 17° North 284 327 12,500 2,400 Climbing Jacksonville Center
Wed 12:04:12 AM 29.5481 -82.1047 19° North 303 349 14,700 2,300 Climbing Jacksonville Center
Wed 12:05:12 AM 29.6375 -82.0658 21° North 315 362 17,100 2,150 Climbing Jacksonville Center
Wed 12:06:12 AM 29.7417 -82.0242 19° North 333 383 19,000 1,850 Climbing Jacksonville Center
Wed 12:07:12 AM 29.8394 -81.9803 21° North 357 411 20,800 1,800 Climbing Jacksonville Center
Wed 12:08:12 AM 29.9414 -81.9339 22° Northeast 372 428 22,600 1,900 Climbing Jacksonville Center
Wed 12:09:12 AM 30.0414 -81.8872 22° Northeast 382 440 24,600 1,850 Climbing Jacksonville Center
Wed 12:10:12 AM 30.1431 -81.8406 22° Northeast 388 447 26,300 1,400 Climbing Jacksonville Center
Wed 12:11:12 AM 30.2514 -81.7936 21° North 393 452 27,400 1,100 Climbing Jacksonville Center
Wed 12:12:12 AM 30.3636 -81.7417 22° Northeast 430 495 28,500 850 Climbing Jacksonville Center
Wed 12:13:12 AM 30.4697 -81.6994 19° North 442 509 29,100 550 Climbing Jacksonville Center
Wed 12:14:12 AM 30.5925 -81.6450 21° North 454 522 29,600 550 Climbing Jacksonville Center
Wed 12:15:12 AM 30.7172 -81.5900 21° North 465 535 30,200 500 Climbing Jacksonville Center
Wed 12:16:12 AM 30.8439 -81.5328 21° North 476 548 30,600 -590 Climbing Jacksonville Center
Wed 12:47:35 AM 34.5319 -79.7969 22° Northeast 442 509 11,100 -602 Descending Washington Center
Wed 12:48:00 AM 34.0386 -79.9809 22° Northeast  Level FlightAware Approximate
Wed 12:48:36 AM 34.6272 -79.7514 21° North 398 458 11,100  Level Washington Center
Wed 12:49:00 AM 34.1410 -79.9299 22° Northeast  Level FlightAware Approximate
Wed 12:49:35 AM 34.7186 -79.7056 22° Northeast 369 425 11,100  Level Washington Center
Wed 12:50:00 AM 34.2433 -79.8788 22° Northeast  Level FlightAware Approximate
Wed 12:50:35 AM 34.8100 -79.6594 23° Northeast 356 410 10,300  Level Washington Center
Wed 12:51:00 AM 34.3456 -79.8276 22° Northeast  Level FlightAware Approximate
Wed 12:51:37 AM 34.8928 -79.6181 22° Northeast 340 391 8,600  Level Washington Center
Wed 12:52:36 AM 34.9647 -79.5836 21° North 305 351 6,000 -2,471 Descending Washington Center
Wed 12:53:36 AM 35.0244 -79.5511 24° Northeast 261 300 3,700 -1,462 Descending Washington Center
Wed 12:54:35 AM 35.0836 -79.5236 21° North 236 272 3,100 3,681 Descending Washington Center
Wed 12:55:35 AM 35.1556 -79.4917 20° North 236 272 11,000 3,885 Climbing Washington Center
Wed 12:56:37 AM 35.2192 -79.4642 19° North 236 272 11,000  Level Washington Center

Login

Don't have an account? Register now (free) for customized features, flight alerts, and more!